Time;durP1;ratioP1;P1;durP2;ratioP2;P2;SDS_P1;SDS_P2;PMS_P1;PMS_P2;Temp;Humidity;BMP_temperature;BMP_pressure;BME280_temperature;BME280_humidity;BME280_pressure;Samples;Min_cycle;Max_cycle;Signal;HPM_P1;HPM_P2
2024/01/04 00:00:39;;;;;;;1999.90;999.90;;;;;;;1.46;100.00;95713.22;5073456;28;20513;-64
2024/01/04 00:03:06;;;;;;;1999.90;999.90;;;;;;;1.56;100.00;95710.50;5073492;28;20098;-67
2024/01/04 00:05:34;;;;;;;1999.90;999.90;;;;;;;1.67;100.00;95712.88;5072507;28;20056;-69
2024/01/04 00:08:02;;;;;;;1999.90;999.90;;;;;;;1.70;100.00;95718.00;5073245;28;20086;-65
2024/01/04 00:10:30;;;;;;;1999.90;999.90;;;;;;;1.75;100.00;95722.19;5073266;28;20048;-64
2024/01/04 00:12:57;;;;;;;1999.90;999.90;;;;;;;1.74;100.00;95717.91;5073282;28;20044;-64
2024/01/04 00:15:24;;;;;;;1999.90;999.90;;;;;;;1.79;100.00;95723.00;5073251;28;20091;-66
2024/01/04 00:17:51;;;;;;;1999.90;999.90;;;;;;;1.76;100.00;95715.31;5073231;28;20090;-62
2024/01/04 00:20:18;;;;;;;1999.90;999.90;;;;;;;1.75;100.00;95717.03;5073026;28;20098;-66
2024/01/04 00:22:45;;;;;;;1999.90;999.90;;;;;;;1.84;100.00;95725.53;5073144;28;20094;-63
2024/01/04 00:25:14;;;;;;;1999.90;999.90;;;;;;;1.86;100.00;95726.31;5073052;28;20053;-64
2024/01/04 00:27:41;;;;;;;1999.90;999.90;;;;;;;1.80;100.00;95724.69;5073378;28;20406;-64
2024/01/04 00:30:09;;;;;;;1999.90;999.90;;;;;;;1.86;100.00;95726.31;5073323;28;20078;-68
2024/01/04 00:32:37;;;;;;;1999.90;999.90;;;;;;;1.79;100.00;95727.31;5073103;28;20048;-65
2024/01/04 00:35:04;;;;;;;1999.90;999.90;;;;;;;1.76;100.00;95723.91;5072958;28;20045;-64
2024/01/04 00:37:32;;;;;;;1999.90;999.90;;;;;;;1.72;100.00;95722.25;5072937;28;20045;-68
2024/01/04 00:39:59;;;;;;;1999.90;999.90;;;;;;;1.84;100.00;95728.09;5072986;28;20055;-67
2024/01/04 00:42:27;;;;;;;1999.90;999.90;;;;;;;1.89;100.00;95726.28;5073218;28;20052;-64
2024/01/04 00:44:54;;;;;;;1999.90;999.90;;;;;;;1.82;100.00;95720.38;5073066;28;20091;-67
2024/01/04 00:47:21;;;;;;;1999.90;999.90;;;;;;;1.83;100.00;95724.66;5072952;28;20431;-67
2024/01/04 00:49:48;;;;;;;1999.90;999.90;;;;;;;1.87;100.00;95720.31;5072844;28;20044;-65
2024/01/04 00:52:15;;;;;;;1999.90;999.90;;;;;;;1.85;100.00;95722.91;5072705;28;20143;-64
2024/01/04 00:54:42;;;;;;;1999.90;999.90;;;;;;;1.82;100.00;95720.38;5073032;28;20122;-67
2024/01/04 00:57:09;;;;;;;1999.90;999.90;;;;;;;1.78;100.00;95723.91;5073030;28;20078;-69
2024/01/04 00:59:37;;;;;;;1999.90;999.90;;;;;;;1.82;100.00;95719.53;5072735;28;20055;-66
2024/01/04 01:02:05;;;;;;;1999.90;999.90;;;;;;;1.88;100.00;95711.69;5072753;28;20055;-64
2024/01/04 01:04:32;;;;;;;1999.90;999.90;;;;;;;1.82;100.00;95704.03;5072686;28;20049;-65
2024/01/04 01:06:59;;;;;;;1999.90;999.90;;;;;;;1.82;100.00;95709.22;5072747;28;20084;-63
2024/01/04 01:09:26;;;;;;;1999.90;999.90;;;;;;;1.80;100.00;95696.34;5072680;28;20053;-67
2024/01/04 01:11:53;;;;;;;1999.90;999.90;;;;;;;1.72;100.00;95698.19;5072613;28;20521;-66
2024/01/04 01:14:20;;;;;;;1999.90;999.90;;;;;;;1.67;100.00;95697.41;5072905;28;20473;-68
2024/01/04 01:16:49;;;;;;;1999.90;999.90;;;;;;;1.65;100.00;95715.47;5072693;28;20052;-64
2024/01/04 01:19:16;;;;;;;1999.90;999.90;;;;;;;1.59;100.00;95706.13;5076540;28;20131;-65
2024/01/04 01:21:44;;;;;;;1999.90;999.90;;;;;;;1.59;100.00;95710.41;5076508;28;20441;-69
2024/01/04 01:24:11;;;;;;;1999.90;999.90;;;;;;;1.62;100.00;95715.53;5076532;28;20041;-67
2024/01/04 01:26:38;;;;;;;1999.90;999.90;;;;;;;1.64;100.00;95716.38;5076561;28;20052;-66
2024/01/04 01:29:05;;;;;;;1999.90;999.90;;;;;;;1.58;100.00;95724.19;5076356;28;20079;-68
2024/01/04 01:31:32;;;;;;;1999.90;999.90;;;;;;;1.60;100.00;95712.16;5076483;28;20045;-64
2024/01/04 01:34:00;;;;;;;1999.90;999.90;;;;;;;1.54;100.00;95714.81;5076234;28;20074;-67
2024/01/04 01:36:27;;;;;;;1999.90;999.90;;;;;;;1.54;100.00;95709.66;5076206;28;20068;-65
2024/01/04 01:38:55;;;;;;;1999.90;999.90;;;;;;;1.60;100.00;95707.00;5076422;28;20068;-67
2024/01/04 01:41:22;;;;;;;1999.90;999.90;;;;;;;1.63;100.00;95707.78;5076116;28;20044;-65
2024/01/04 01:43:49;;;;;;;1999.90;999.90;;;;;;;1.62;100.00;95708.66;5076254;28;20139;-65
2024/01/04 01:46:17;;;;;;;1999.90;999.90;;;;;;;1.67;100.00;95698.28;5076226;28;20106;-67
2024/01/04 01:48:44;;;;;;;1999.90;999.90;;;;;;;1.66;100.00;95696.59;5075838;28;20084;-65
2024/01/04 01:51:14;;;;;;;1999.90;999.90;;;;;;;1.64;100.00;95694.03;5075799;28;20083;-68
2024/01/04 01:53:42;;;;;;;1999.90;999.90;;;;;;;1.56;100.00;95690.69;5075825;28;20127;-65
2024/01/04 01:56:09;;;;;;;1999.90;999.90;;;;;;;1.56;100.00;95690.69;5075766;28;20049;-68
2024/01/04 01:58:38;;;;;;;1999.90;999.90;;;;;;;1.50;100.00;95680.47;5075787;28;20098;-65
2024/01/04 02:01:05;;;;;;;1999.90;999.90;;;;;;;1.51;100.00;95687.38;5075681;28;20048;-66
2024/01/04 02:03:33;;;;;;;1999.90;999.90;;;;;;;1.55;100.00;95694.16;5075642;28;20079;-66
2024/01/04 02:06:00;;;;;;;1999.90;999.90;;;;;;;1.58;100.00;95695.84;5075548;28;20135;-63
2024/01/04 02:08:28;;;;;;;1999.90;999.90;;;;;;;1.58;100.00;95699.28;5075561;28;20541;-69
2024/01/04 02:10:55;;;;;;;1999.90;999.90;;;;;;;1.57;100.00;95697.59;5075495;28;20044;-69
2024/01/04 02:13:22;;;;;;;1999.90;999.90;;;;;;;1.56;100.00;95711.31;5075493;28;20127;-69
2024/01/04 02:15:49;;;;;;;1999.90;999.90;;;;;;;1.63;100.00;95715.50;5075561;28;20052;-64
2024/01/04 02:18:16;;;;;;;1999.90;999.90;;;;;;;1.69;100.00;95708.56;5075566;28;20044;-66
2024/01/04 02:20:43;;;;;;;1999.90;999.90;;;;;;;1.71;100.00;95701.63;5075160;28;20076;-65
2024/01/04 02:23:17;;;;;;;1999.90;999.90;;;;;;;1.69;100.00;95693.94;5075386;28;20066;-65
2024/01/04 02:25:44;;;;;;;1999.90;999.90;;;;;;;1.71;100.00;95689.59;5075361;28;20040;-68
2024/01/04 02:28:11;;;;;;;1999.90;999.90;;;;;;;1.80;100.00;95678.28;5074943;28;20459;-65
2024/01/04 02:30:38;;;;;;;1999.90;999.90;;;;;;;1.76;100.00;95687.81;5074912;28;20048;-66
2024/01/04 02:33:05;;;;;;;1999.90;999.90;;;;;;;1.77;100.00;95692.09;5075084;28;20434;-63
2024/01/04 02:35:33;;;;;;;1999.90;999.90;;;;;;;1.75;100.00;95690.41;5075060;28;20044;-66
2024/01/04 02:38:00;;;;;;;1999.90;999.90;;;;;;;1.82;100.00;95686.84;5074844;28;20135;-67
2024/01/04 02:40:30;;;;;;;1999.90;999.90;;;;;;;1.82;100.00;95693.72;5074951;28;20044;-66
2024/01/04 02:42:57;;;;;;;1999.90;999.90;;;;;;;1.79;100.00;95692.06;5075028;28;20044;-66
2024/01/04 02:45:24;;;;;;;1999.90;999.90;;;;;;;1.84;100.00;95704.88;5074839;28;20505;-66
2024/01/04 02:47:51;;;;;;;1999.90;999.90;;;;;;;1.85;100.00;95707.44;5075020;28;20071;-63
2024/01/04 02:50:19;;;;;;;1999.90;999.90;;;;;;;1.91;100.00;95695.31;5074695;28;20504;-66
2024/01/04 02:52:46;;;;;;;1999.90;999.90;;;;;;;1.92;100.00;95715.91;5074655;28;20044;-66
2024/01/04 02:55:13;;;;;;;1999.90;999.90;;;;;;;1.94;100.00;95711.59;5074678;28;20044;-66
2024/01/04 02:57:42;;;;;;;1999.90;999.90;;;;;;;1.96;100.00;95706.41;5074656;28;20091;-65
2024/01/04 03:00:11;;;;;;;1999.90;999.90;;;;;;;1.95;100.00;95712.41;5074515;28;20091;-63
2024/01/04 03:02:37;;;;;;;1999.90;999.90;;;;;;;1.94;100.00;95706.44;5074547;28;20051;-65
2024/01/04 03:05:05;;;;;;;1999.90;999.90;;;;;;;1.91;100.00;95700.47;5074551;28;20055;-68
2024/01/04 03:07:33;;;;;;;1999.90;999.90;;;;;;;1.94;100.00;95700.41;5074346;28;20490;-64
2024/01/04 03:10:01;;;;;;;1999.90;999.90;;;;;;;2.00;100.00;95700.31;5074261;28;20494;-66
2024/01/04 03:12:28;;;;;;;1999.90;999.90;;;;;;;1.94;100.00;95695.25;5074405;28;20084;-66
2024/01/04 03:14:58;;;;;;;1999.90;999.90;;;;;;;1.98;100.00;95700.34;5074397;28;20049;-64
2024/01/04 03:17:25;;;;;;;1999.90;999.90;;;;;;;2.05;100.00;95698.50;5074498;28;20049;-67
2024/01/04 03:19:52;;;;;;;1999.90;999.90;;;;;;;2.02;100.00;95703.72;5074084;28;20044;-66
2024/01/04 03:22:19;;;;;;;1999.90;999.90;;;;;;;2.05;100.00;95711.41;5074153;28;20048;-67
2024/01/04 03:24:46;;;;;;;1999.90;999.90;;;;;;;2.10;100.00;95712.16;5074070;28;20087;-63
2024/01/04 03:27:13;;;;;;;1999.90;999.90;;;;;;;2.09;100.00;95713.06;5074055;28;20133;-66
2024/01/04 03:29:41;;;;;;;1999.90;999.90;;;;;;;2.13;100.00;95711.25;5073960;28;20045;-65
2024/01/04 03:32:09;;;;;;;1999.90;999.90;;;;;;;2.13;100.00;95708.66;5073756;28;20083;-67
2024/01/04 03:34:36;;;;;;;1999.90;999.90;;;;;;;2.03;100.00;95713.16;5073992;28;20049;-65
2024/01/04 03:37:03;;;;;;;1999.90;999.90;;;;;;;2.02;100.00;95716.63;5073888;28;20050;-64
2024/01/04 03:39:30;;;;;;;1999.90;999.90;;;;;;;1.99;100.00;95720.09;5073750;28;20490;-68
2024/01/04 03:41:57;;;;;;;1999.90;999.90;;;;;;;1.94;100.00;95713.31;5073656;28;20079;-68
2024/01/04 03:44:24;;;;;;;1999.90;999.90;;;;;;;1.86;100.00;95703.97;5073617;28;20486;-65
2024/01/04 03:46:51;;;;;;;1999.90;999.90;;;;;;;1.85;100.00;95701.41;5073634;28;20080;-67
2024/01/04 03:49:20;;;;;;;1999.90;999.90;;;;;;;1.88;100.00;95693.63;5073641;28;20055;-67
2024/01/04 03:51:47;;;;;;;1999.90;999.90;;;;;;;1.89;100.00;95703.94;5073636;28;20053;-65
2024/01/04 03:54:14;;;;;;;1999.90;999.90;;;;;;;1.93;100.00;95693.56;5073585;28;20045;-66
2024/01/04 03:56:41;;;;;;;1999.90;999.90;;;;;;;1.87;100.00;95694.53;5073517;28;20044;-68
2024/01/04 03:59:08;;;;;;;1999.90;999.90;;;;;;;1.84;100.00;95699.72;5073574;28;20059;-64
2024/01/04 04:01:35;;;;;;;1999.90;999.90;;;;;;;1.86;100.00;95683.34;5073516;28;20467;-66
2024/01/04 04:04:02;;;;;;;1999.90;999.90;;;;;;;1.95;100.00;95695.22;5073593;28;20072;-67
2024/01/04 04:06:32;;;;;;;1999.90;999.90;;;;;;;1.97;100.00;95680.59;5073309;28;20483;-63
2024/01/04 04:08:59;;;;;;;1999.90;999.90;;;;;;;1.92;100.00;95684.97;5073314;28;20506;-66
2024/01/04 04:11:27;;;;;;;1999.90;999.90;;;;;;;1.85;99.96;95675.63;5073187;28;20055;-65
2024/01/04 04:13:55;;;;;;;1999.90;999.90;;;;;;;1.83;100.00;95672.22;5073219;28;20055;-69
2024/01/04 04:16:22;;;;;;;1999.90;999.90;;;;;;;1.82;99.49;95679.13;5073127;28;20056;-65
2024/01/04 04:18:49;;;;;;;1999.90;999.90;;;;;;;1.85;99.75;95686.81;5073350;28;20052;-66
2024/01/04 04:21:20;;;;;;;1999.90;999.90;;;;;;;1.83;99.19;95692.84;5073121;28;20084;-66
2024/01/04 04:23:50;;;;;;;1999.90;999.90;;;;;;;1.68;98.91;95692.22;5073099;28;20040;-66
2024/01/04 04:26:19;;;;;;;1999.90;999.90;;;;;;;1.58;98.72;95685.53;5072896;28;20402;-65
2024/01/04 04:28:47;;;;;;;1999.90;999.90;;;;;;;1.50;98.58;95683.91;5073226;28;20056;-68
2024/01/04 04:31:14;;;;;;;1999.90;999.90;;;;;;;1.53;99.17;95690.75;5073277;28;20052;-65
2024/01/04 04:33:44;;;;;;;1999.90;999.90;;;;;;;1.53;99.30;95688.16;5073143;28;20164;-67
2024/01/04 04:36:12;;;;;;;1999.90;999.90;;;;;;;1.49;98.48;95696.84;5072982;28;20071;-66
2024/01/04 04:38:40;;;;;;;1999.90;999.90;;;;;;;1.47;98.38;95704.59;5073121;28;20044;-67
2024/01/04 04:41:09;;;;;;;1999.90;999.90;;;;;;;1.49;100.00;95708.00;5073012;28;20099;-68
2024/01/04 04:43:36;;;;;;;1999.90;999.90;;;;;;;1.50;99.95;95717.44;5073041;28;20076;-63
2024/01/04 04:46:09;;;;;;;1999.90;999.90;;;;;;;1.48;99.39;95702.88;5072953;28;20048;-67
2024/01/04 04:48:37;;;;;;;1999.90;999.90;;;;;;;1.39;98.45;95694.38;5073038;28;20127;-63
2024/01/04 04:51:05;;;;;;;1999.90;999.90;;;;;;;1.30;98.85;95686.81;5072984;28;20083;-69
2024/01/04 04:53:59;;;;;;;1999.90;999.90;;;;;;;1.25;98.86;95693.75;5076078;28;20051;-67
2024/01/04 04:56:29;;;;;;;1999.90;999.90;;;;;;;1.32;99.52;95703.09;5076932;28;20135;-69
2024/01/04 04:58:57;;;;;;;1999.90;999.90;;;;;;;1.23;99.44;95698.94;5076939;28;20084;-65
2024/01/04 05:01:44;;;;;;;1999.90;999.90;;;;;;;1.18;100.00;95703.31;5076808;28;20053;-65
2024/01/04 05:04:12;;;;;;;1999.90;999.90;;;;;;;1.11;100.00;95699.94;5076759;28;20394;-63
2024/01/04 05:06:39;;;;;;;1999.90;999.90;;;;;;;1.20;100.00;95701.53;5076896;28;20055;-66
2024/01/04 05:09:17;;;;;;;1999.90;999.90;;;;;;;1.12;100.00;95688.75;5076810;28;20098;-68
2024/01/04 05:11:45;;;;;;;1999.90;999.90;;;;;;;1.19;100.00;95691.25;5076528;28;20060;-65
2024/01/04 05:14:16;;;;;;;1999.90;999.90;;;;;;;1.17;100.00;95691.28;5076930;28;20076;-67
2024/01/04 05:16:44;;;;;;;1999.90;999.90;;;;;;;1.10;100.00;95687.09;5076788;28;20406;-66
2024/01/04 05:19:12;;;;;;;1999.90;999.90;;;;;;;1.04;100.00;95693.19;5076570;28;20128;-67
2024/01/04 05:21:40;;;;;;;1999.90;999.90;;;;;;;1.13;100.00;95690.50;5076307;28;20048;-66
2024/01/04 05:24:08;;;;;;;1999.90;999.90;;;;;;;1.13;100.00;95681.91;5076515;28;20049;-65
2024/01/04 05:26:41;;;;;;;1999.90;999.90;;;;;;;1.12;100.00;95682.78;5076153;28;20513;-63
2024/01/04 05:29:09;;;;;;;1999.90;999.90;;;;;;;1.19;100.00;95683.53;5076256;28;20048;-67
2024/01/04 05:31:37;;;;;;;1999.90;999.90;;;;;;;1.18;100.00;95685.28;5076241;28;20049;-67
2024/01/04 05:34:04;;;;;;;1999.90;999.90;;;;;;;1.20;100.00;95678.34;5076468;28;20052;-65
2024/01/04 05:36:31;;;;;;;1999.90;999.90;;;;;;;1.29;100.00;95690.25;5076503;28;20056;-67
2024/01/04 05:38:58;;;;;;;1999.90;999.90;;;;;;;1.35;100.00;95690.16;5076037;28;20056;-65
2024/01/04 05:41:25;;;;;;;1999.90;999.90;;;;;;;1.37;100.00;95697.88;5076087;28;20048;-66
2024/01/04 05:43:53;;;;;;;1999.90;999.90;;;;;;;1.39;100.00;95703.88;5076289;28;20040;-63
2024/01/04 05:46:21;;;;;;;1999.90;999.90;;;;;;;1.38;100.00;95700.44;5075881;28;20048;-67
2024/01/04 05:48:57;;;;;;;1999.90;999.90;;;;;;;1.31;100.00;95688.50;5075957;28;20049;-63
2024/01/04 05:51:24;;;;;;;1999.90;999.90;;;;;;;1.33;100.00;95697.09;5075715;28;20052;-66
2024/01/04 05:53:51;;;;;;;1999.90;999.90;;;;;;;1.42;100.00;95688.34;5075795;28;20123;-67
2024/01/04 05:56:18;;;;;;;1999.90;999.90;;;;;;;1.42;100.00;95690.06;5075867;28;20542;-65
2024/01/04 05:58:46;;;;;;;1999.90;999.90;;;;;;;1.48;100.00;95692.56;5075744;28;20507;-67
2024/01/04 06:01:13;;;;;;;1999.90;999.90;;;;;;;1.54;100.00;95695.06;5075933;28;20040;-66
2024/01/04 06:03:53;;;;;;;1999.90;999.90;;;;;;;1.62;100.00;95698.34;5075702;28;20045;-68
2024/01/04 06:06:21;;;;;;;1999.90;999.90;;;;;;;1.63;100.00;95699.22;5075546;28;20080;-65
2024/01/04 06:08:48;;;;;;;1999.90;999.90;;;;;;;1.60;100.00;95702.66;5075574;28;20052;-65
2024/01/04 06:11:16;;;;;;;1999.90;999.90;;;;;;;1.62;100.00;95698.34;5075670;28;20055;-67
2024/01/04 06:13:43;;;;;;;1999.90;999.90;;;;;;;1.72;100.00;95703.34;5075604;28;20507;-64
2024/01/04 06:16:11;;;;;;;1999.90;999.90;;;;;;;1.80;100.00;95705.81;5074241;28;20045;-65
2024/01/04 06:18:39;;;;;;;1999.90;999.90;;;;;;;1.95;100.00;95705.53;5075368;28;20090;-65
2024/01/04 06:21:09;;;;;;;1999.90;999.90;;;;;;;2.13;100.00;95711.25;5075055;28;20040;-68
2024/01/04 06:23:37;;;;;;;1999.90;999.90;;;;;;;2.32;100.00;95711.75;5074950;28;20040;-65
2024/01/04 06:26:07;;;;;;;1999.90;999.90;;;;;;;2.55;100.00;95722.53;5075401;28;20052;-65
2024/01/04 06:28:36;;;;;;;1999.90;999.90;;;;;;;3.19;100.00;95716.09;5075115;28;20064;-67
2024/01/04 06:31:05;;;;;;;1999.90;999.90;;;;;;;4.17;100.00;95709.47;5075360;28;20471;-66
2024/01/04 06:33:39;;;;;;;1999.90;999.90;;;;;;;5.38;94.12;95704.38;5075268;28;20131;-68
2024/01/04 06:36:08;;;;;;;1999.90;999.90;;;;;;;6.39;84.83;95699.44;5075100;28;20052;-68
2024/01/04 06:38:36;;;;;;;1999.90;999.90;;;;;;;7.10;80.65;95688.25;5074995;28;20548;-65
2024/01/04 06:41:04;;;;;;;1999.90;999.90;;;;;;;8.30;78.35;95699.13;5075264;28;20058;-64
2024/01/04 06:43:31;;;;;;;1999.90;999.90;;;;;;;9.38;72.60;95712.72;5074919;28;20047;-67
2024/01/04 06:45:58;;;;;;;1999.90;999.90;;;;;;;10.44;67.95;95730.31;5074967;28;20355;-67
2024/01/04 06:48:27;;;;;;;1999.90;999.90;;;;;;;11.41;65.01;95723.59;5074796;28;20055;-64
2024/01/04 06:50:56;;;;;;;1999.90;999.90;;;;;;;12.71;61.03;95738.22;5074506;28;20048;-65
2024/01/04 06:53:24;;;;;;;1999.90;999.90;;;;;;;13.99;54.45;95756.72;5074867;28;20053;-68
2024/01/04 06:55:51;;;;;;;1999.90;999.90;;;;;;;14.47;51.28;95736.13;5074722;28;20072;-66
2024/01/04 06:58:19;;;;;;;1999.90;999.90;;;;;;;14.52;51.73;95739.31;5074950;28;20044;-66
2024/01/04 07:00:47;;;;;;;1999.90;999.90;;;;;;;14.44;52.03;95723.16;5074672;28;20044;-63
2024/01/04 07:03:16;;;;;;;1999.90;999.90;;;;;;;14.46;52.17;95719.53;5074558;28;20048;-67
2024/01/04 07:05:44;;;;;;;1999.90;999.90;;;;;;;14.39;51.87;95719.06;5074498;28;20395;-67
2024/01/04 07:08:11;;;;;;;1999.90;999.90;;;;;;;14.14;52.76;95719.84;5074411;28;20049;-64
2024/01/04 07:10:40;;;;;;;1999.90;999.90;;;;;;;13.98;53.12;95712.13;5074550;28;20131;-64
2024/01/04 07:13:08;;;;;;;1999.90;999.90;;;;;;;13.83;53.37;95704.28;5074407;28;20044;-64
2024/01/04 07:15:38;;;;;;;1999.90;999.90;;;;;;;13.49;54.35;95702.00;5073845;28;20059;-65
2024/01/04 07:18:06;;;;;;;1999.90;999.90;;;;;;;13.02;55.85;95697.00;5073821;28;20068;-65
2024/01/04 07:20:35;;;;;;;1999.90;999.90;;;;;;;12.64;57.43;95714.13;5073964;28;20467;-66
2024/01/04 07:23:08;;;;;;;1999.90;999.90;;;;;;;12.19;56.46;95714.09;5074161;28;20453;-64
2024/01/04 07:25:39;;;;;;;1999.90;999.90;;;;;;;11.71;55.97;95722.84;5074137;28;20481;-67
2024/01/04 07:28:08;;;;;;;1999.90;999.90;;;;;;;11.45;55.26;95722.53;5073985;28;20048;-66
2024/01/04 07:30:36;;;;;;;1999.90;999.90;;;;;;;11.24;56.18;95714.91;5074036;28;20098;-66
2024/01/04 07:33:10;;;;;;;1999.90;999.90;;;;;;;11.28;57.37;95720.81;5074295;28;20041;-68
2024/01/04 07:35:38;;;;;;;1999.90;999.90;;;;;;;11.42;57.99;95716.59;5073835;28;20137;-65
2024/01/04 07:38:08;;;;;;;1999.90;999.90;;;;;;;11.65;57.82;95720.56;5073872;28;20045;-65
2024/01/04 07:40:35;;;;;;;1999.90;999.90;;;;;;;11.68;57.85;95730.03;5073863;28;20048;-68
2024/01/04 07:43:04;;;;;;;1999.90;999.90;;;;;;;11.64;58.50;95726.72;5073746;28;20131;-68
2024/01/04 07:45:36;;;;;;;1999.90;999.90;;;;;;;11.56;58.48;95732.38;5072781;28;20503;-65
2024/01/04 07:48:05;;;;;;;1999.90;999.90;;;;;;;11.45;58.61;95737.38;5073525;28;20465;-65
2024/01/04 07:50:32;;;;;;;1999.90;999.90;;;;;;;11.41;59.46;95730.63;5073558;28;20048;-65
2024/01/04 07:53:05;;;;;;;1999.90;999.90;;;;;;;11.55;61.20;95727.22;5073504;28;20099;-65
2024/01/04 07:55:39;;;;;;;1999.90;999.90;;;;;;;11.80;62.02;95721.47;5073615;28;20559;-65
2024/01/04 07:58:11;;;;;;;1999.90;999.90;;;;;;;11.82;62.54;95710.91;5073570;28;20048;-67
2024/01/04 08:00:40;;;;;;;1999.90;999.90;;;;;;;11.94;62.88;95706.75;5073486;28;20441;-64
2024/01/04 08:03:09;;;;;;;1999.90;999.90;;;;;;;12.09;64.13;95710.31;5073678;28;20052;-67
2024/01/04 08:05:37;;;;;;;1999.90;999.90;;;;;;;12.18;64.20;95712.41;5073431;28;20045;-67
2024/01/04 08:08:06;;;;;;;1999.90;999.90;;;;;;;12.33;64.47;95702.81;5073449;28;20067;-66
2024/01/04 08:10:34;;;;;;;1999.90;999.90;;;;;;;12.64;64.24;95705.38;5073447;28;20049;-64
2024/01/04 08:13:06;;;;;;;1999.90;999.90;;;;;;;12.92;63.70;95700.28;5073444;28;20139;-67
2024/01/04 08:15:34;;;;;;;1999.90;999.90;;;;;;;13.08;62.88;95710.66;5073325;28;20045;-68
2024/01/04 08:18:04;;;;;;;1999.90;999.90;;;;;;;13.12;62.19;95701.66;5073256;28;20531;-67
2024/01/04 08:20:33;;;;;;;;;;;;;;;13.18;61.47;95706.53;5073417;28;20048;-69
2024/01/04 08:23:02;;;;;;;1999.90;999.90;;;;;;;13.33;61.15;95707.38;5073170;28;19966;-67
2024/01/04 08:25:31;;;;;;;1999.90;999.90;;;;;;;13.48;61.27;95702.94;5073152;28;20056;-67
2024/01/04 08:27:59;;;;;;;1999.90;999.90;;;;;;;13.46;61.43;95699.56;5072143;28;20075;-64
2024/01/04 08:30:27;;;;;;;1999.90;999.90;;;;;;;13.61;60.85;95697.78;5073205;28;20053;-66
2024/01/04 08:32:54;;;;;;;1999.90;999.90;;;;;;;13.90;60.55;95697.69;5073114;28;20044;-66
2024/01/04 08:35:24;;;;;;;1999.90;999.90;;;;;;;14.13;59.36;95684.84;5073127;28;20079;-66
2024/01/04 08:37:51;;;;;;;1999.90;999.90;;;;;;;13.96;58.56;95690.34;5072925;28;20575;-65
2024/01/04 08:40:18;;;;;;;1999.90;999.90;;;;;;;13.90;58.33;95675.81;5072946;28;20094;-67
2024/01/04 08:42:47;;;;;;;1999.90;999.90;;;;;;;14.15;57.18;95668.97;5073021;28;20522;-68
2024/01/04 08:45:14;;;;;;;1999.90;999.90;;;;;;;14.23;57.54;95665.78;5072983;28;20072;-66
2024/01/04 08:47:42;;;;;;;1999.90;999.90;;;;;;;14.06;58.42;95665.13;5072758;28;20051;-68
2024/01/04 08:50:11;;;;;;;1999.90;999.90;;;;;;;13.80;60.02;95659.81;5072913;28;20084;-68
2024/01/04 08:52:40;;;;;;;1999.90;999.90;;;;;;;13.82;60.96;95659.72;5072813;28;20050;-66
2024/01/04 08:55:08;;;;;;;1999.90;999.90;;;;;;;13.74;61.09;95650.53;5073025;28;20044;-63
2024/01/04 08:57:35;;;;;;;1999.90;999.90;;;;;;;13.63;60.96;95642.50;5072910;28;20127;-64
2024/01/04 09:00:04;;;;;;;1999.90;999.90;;;;;;;13.37;62.15;95630.06;5072769;28;20048;-67
2024/01/04 09:02:31;;;;;;;1999.90;999.90;;;;;;;13.06;63.74;95623.31;5072901;28;20052;-66
2024/01/04 09:04:58;;;;;;;1999.90;999.90;;;;;;;12.92;64.52;95622.38;5072701;28;20110;-65
2024/01/04 09:07:26;;;;;;;1999.90;999.90;;;;;;;12.86;63.31;95628.81;5072727;28;20049;-64
2024/01/04 09:09:55;;;;;;;1999.90;999.90;;;;;;;12.74;66.21;95622.56;5072665;28;20102;-66
2024/01/04 09:12:22;;;;;;;1999.90;999.90;;;;;;;12.61;65.21;95614.59;5072663;28;20098;-65
2024/01/04 09:14:49;;;;;;;1999.90;999.90;;;;;;;12.49;63.40;95617.97;5071385;28;20102;-67
2024/01/04 09:17:16;;;;;;;1999.90;999.90;;;;;;;12.47;64.35;95625.09;5072762;28;20083;-66
2024/01/04 09:19:43;;;;;;;1999.90;999.90;;;;;;;12.45;64.49;95630.44;5072716;28;20048;-63
2024/01/04 09:22:10;;;;;;;1999.90;999.90;;;;;;;12.43;63.96;95631.47;5072364;28;20088;-68
2024/01/04 09:24:37;;;;;;;1999.90;999.90;;;;;;;12.38;71.14;95623.88;5072627;28;20048;-63
2024/01/04 09:27:06;;;;;;;1999.90;999.90;;;;;;;12.19;70.84;95627.56;5072499;28;20041;-64
2024/01/04 09:29:34;;;;;;;1999.90;999.90;;;;;;;12.00;70.51;95620.78;5072647;28;20059;-65
2024/01/04 09:32:02;;;;;;;1999.90;999.90;;;;;;;11.95;72.86;95619.38;5072464;28;20131;-66
2024/01/04 09:34:29;;;;;;;1999.90;999.90;;;;;;;11.98;73.22;95614.78;5072443;28;20414;-63
2024/01/04 09:36:57;;;;;;;1999.90;999.90;;;;;;;12.01;72.89;95598.00;5071271;28;20045;-63
2024/01/04 09:39:24;;;;;;;1999.90;999.90;;;;;;;12.02;73.72;95597.09;5075109;28;20052;-65
2024/01/04 09:41:52;;;;;;;1999.90;999.90;;;;;;;11.95;73.18;95585.28;5076089;28;20052;-69
2024/01/04 09:44:21;;;;;;;1999.90;999.90;;;;;;;11.94;72.59;95578.34;5076028;28;20040;-66
2024/01/04 09:46:50;;;;;;;1999.90;999.90;;;;;;;11.97;71.87;95567.69;5076002;28;20041;-69
2024/01/04 09:49:20;;;;;;;1999.90;999.90;;;;;;;11.98;71.38;95564.97;5075919;28;20135;-66
2024/01/04 09:51:48;;;;;;;1999.90;999.90;;;;;;;12.05;70.76;95562.84;5075823;28;20132;-66
2024/01/04 09:54:24;;;;;;;1999.90;999.90;;;;;;;12.10;68.32;95567.84;5075850;28;20143;-67
2024/01/04 09:56:54;;;;;;;1999.90;999.90;;;;;;;12.12;65.10;95563.34;5075882;28;20048;-64
2024/01/04 09:59:22;;;;;;;1999.90;999.90;;;;;;;12.18;69.20;95556.88;5075780;28;20469;-63
2024/01/04 10:01:51;;;;;;;1999.90;999.90;;;;;;;12.17;71.46;95552.59;5075788;28;20106;-66
2024/01/04 10:04:18;;;;;;;1999.90;999.90;;;;;;;12.13;71.67;95547.53;5075890;28;20048;-65
2024/01/04 10:06:46;;;;;;;1999.90;999.90;;;;;;;12.04;69.61;95541.97;5075762;28;20048;-66
2024/01/04 10:09:20;;;;;;;1999.90;999.90;;;;;;;12.08;63.99;95536.50;5075645;28;20084;-64
2024/01/04 10:11:59;;;;;;;1999.90;999.90;;;;;;;12.20;63.15;95531.44;5075699;28;20054;-68
2024/01/04 10:14:28;;;;;;;1999.90;999.90;;;;;;;12.38;61.69;95529.47;5075545;28;20041;-63
2024/01/04 10:16:57;;;;;;;1999.90;999.90;;;;;;;12.60;64.03;95523.72;5075476;28;20048;-65
2024/01/04 10:19:25;;;;;;;1999.90;999.90;;;;;;;12.81;63.32;95530.34;5075351;28;20076;-68
2024/01/04 10:21:52;;;;;;;1999.90;999.90;;;;;;;12.93;59.24;95526.09;5075091;28;20490;-66
2024/01/04 10:24:22;;;;;;;1999.90;999.90;;;;;;;13.07;57.95;95515.56;5075379;28;20048;-68
2024/01/04 10:26:54;;;;;;;1999.90;999.90;;;;;;;13.11;57.50;95503.94;5075227;28;20430;-65
2024/01/04 10:29:22;;;;;;;1999.90;999.90;;;;;;;13.17;54.84;95513.19;5075177;28;20052;-62
2024/01/04 10:32:00;;;;;;;1999.90;999.90;;;;;;;13.17;55.96;95505.31;5075322;28;20045;-67
2024/01/04 10:34:27;;;;;;;1999.90;999.90;;;;;;;13.21;55.99;95501.53;5075137;28;20510;-66
2024/01/04 10:36:56;;;;;;;1999.90;999.90;;;;;;;13.30;56.95;95494.00;5075057;28;20049;-66
2024/01/04 10:39:23;;;;;;;1999.90;999.90;;;;;;;13.35;62.04;95476.16;5075058;28;20044;-68
2024/01/04 10:41:59;;;;;;;1999.90;999.90;;;;;;;13.41;58.50;95473.13;5075023;28;20055;-65
2024/01/04 10:44:27;;;;;;;1999.90;999.90;;;;;;;13.48;57.62;95478.78;5074985;28;20447;-63
2024/01/04 10:46:55;;;;;;;1999.90;999.90;;;;;;;13.48;57.41;95468.28;5074913;28;20084;-66
2024/01/04 10:49:25;;;;;;;1999.90;999.90;;;;;;;13.51;57.99;95468.13;5074207;28;20131;-62
2024/01/04 10:51:53;;;;;;;1999.90;999.90;;;;;;;13.59;57.65;95462.34;5074692;28;20128;-66
2024/01/04 10:54:21;;;;;;;1999.90;999.90;;;;;;;13.62;58.59;95464.78;5074747;28;20049;-69
2024/01/04 10:56:48;;;;;;;1999.90;999.90;;;;;;;13.59;55.83;95460.56;5074746;28;20047;-65
2024/01/04 10:59:18;;;;;;;1999.90;999.90;;;;;;;13.63;55.33;95456.78;5074851;28;20044;-67